createdAt,value
2018-06-29T00:00:43.221Z,17.15
2018-06-29T00:01:43.208Z,17.11
2018-06-29T00:02:43.192Z,16.98
2018-06-29T00:03:43.186Z,17.07
2018-06-29T00:04:43.162Z,17.03
2018-06-29T00:05:43.146Z,17.12
2018-06-29T00:06:43.131Z,17.11
2018-06-29T00:07:43.116Z,17.06
2018-06-29T00:08:43.119Z,17.07
2018-06-29T00:09:43.084Z,17.15
2018-06-29T00:10:43.069Z,17.16
2018-06-29T00:11:43.055Z,17.21
2018-06-29T00:12:43.039Z,17.15
2018-06-29T00:13:43.033Z,17.22
2018-06-29T00:14:43.007Z,17.22
2018-06-29T00:15:42.991Z,17.30
2018-06-29T00:16:42.976Z,17.30
2018-06-29T00:17:42.961Z,17.40
2018-06-29T00:18:42.955Z,17.33
2018-06-29T00:19:42.932Z,17.34
2018-06-29T00:20:43.118Z,17.37
2018-06-29T00:21:42.907Z,17.33
2018-06-29T00:22:42.885Z,17.46
2018-06-29T00:23:43.182Z,17.48
2018-06-29T00:24:42.856Z,17.49
2018-06-29T00:25:42.839Z,17.44
2018-06-29T00:26:42.822Z,17.51
2018-06-29T00:27:42.807Z,17.48
2018-06-29T00:28:42.792Z,17.43
2018-06-29T00:29:42.804Z,17.43
2018-06-29T00:30:42.761Z,17.48
2018-06-29T00:31:42.746Z,17.52
2018-06-29T00:32:42.731Z,17.51
2018-06-29T00:33:42.715Z,17.49
2018-06-29T00:34:42.700Z,17.52
2018-06-29T00:35:42.695Z,17.56
2018-06-29T00:36:42.670Z,17.56
2018-06-29T00:37:42.652Z,17.52
2018-06-29T00:38:42.637Z,17.52
2018-06-29T00:39:42.623Z,17.46
2018-06-29T00:40:42.614Z,17.41
2018-06-29T00:41:42.591Z,17.44
2018-06-29T00:42:42.576Z,17.28
2018-06-29T00:43:42.561Z,17.28
2018-06-29T00:44:42.545Z,17.21
2018-06-29T00:45:42.555Z,17.23
2018-06-29T00:46:42.513Z,17.12
2018-06-29T00:47:42.500Z,17.12
2018-06-29T00:48:42.483Z,17.16
2018-06-29T00:49:42.467Z,17.16
2018-06-29T00:50:42.455Z,17.18
2018-06-29T00:51:42.451Z,17.15
2018-06-29T00:52:42.422Z,17.15
2018-06-29T00:53:42.406Z,17.04
2018-06-29T00:54:42.458Z,16.97
2018-06-29T00:55:42.376Z,16.94
2018-06-29T00:56:42.360Z,16.94
2018-06-29T00:57:42.354Z,16.89
2018-06-29T00:58:42.327Z,16.96
2018-06-29T00:59:42.314Z,16.96
2018-06-29T01:00:42.297Z,16.94
2018-06-29T01:01:42.282Z,16.94
2018-06-29T01:02:42.277Z,16.94
2018-06-29T01:03:42.253Z,16.86
2018-06-29T01:04:42.235Z,16.86
2018-06-29T01:05:42.220Z,16.67
2018-06-29T01:06:42.217Z,16.68
2018-06-29T01:07:42.206Z,16.71
2018-06-29T01:08:42.175Z,16.70
2018-06-29T01:09:42.158Z,16.70
2018-06-29T01:10:42.143Z,16.67
2018-06-29T01:11:42.127Z,16.67
2018-06-29T01:12:42.111Z,16.71
2018-06-29T01:13:42.105Z,16.79
2018-06-29T01:14:42.080Z,16.76
2018-06-29T01:15:42.064Z,16.88
2018-06-29T01:16:42.048Z,16.89
2018-06-29T01:17:42.057Z,16.96
2018-06-29T01:18:42.026Z,17.08
2018-06-29T01:19:42.001Z,17.08
2018-06-29T01:20:41.985Z,17.06
2018-06-29T01:21:41.973Z,17.18
2018-06-29T01:22:41.954Z,17.18
2018-06-29T01:23:41.955Z,17.16
2018-06-29T01:24:41.921Z,17.22
2018-06-29T01:25:41.907Z,17.22
2018-06-29T01:26:41.890Z,17.26
2018-06-29T01:27:41.876Z,17.36
2018-06-29T01:28:41.926Z,17.34
2018-06-29T01:29:41.854Z,17.43
2018-06-29T01:30:41.828Z,17.54
2018-06-29T01:31:41.812Z,17.44
2018-06-29T01:32:41.797Z,17.46
2018-06-29T01:33:41.781Z,17.48
2018-06-29T01:34:41.776Z,17.43
2018-06-29T01:35:41.751Z,17.48
2018-06-29T01:36:41.734Z,17.46
2018-06-29T01:37:41.721Z,17.41
2018-06-29T01:38:41.706Z,17.34
2018-06-29T01:39:41.719Z,17.34
2018-06-29T01:40:41.674Z,17.26
2018-06-29T01:41:41.656Z,17.28
2018-06-29T01:42:41.642Z,17.26
2018-06-29T01:43:41.627Z,17.26
2018-06-29T01:44:41.610Z,17.37
2018-06-29T01:45:41.605Z,17.26
2018-06-29T01:46:41.580Z,17.37
2018-06-29T01:47:41.565Z,17.36
2018-06-29T01:48:41.548Z,17.34
2018-06-29T01:49:41.531Z,17.37
2018-06-29T01:50:41.531Z,17.34
2018-06-29T01:51:41.502Z,17.38
2018-06-29T01:52:41.502Z,17.40
2018-06-29T01:53:41.471Z,17.40
2018-06-29T01:54:41.454Z,17.44
2018-06-29T01:55:41.440Z,17.46
2018-06-29T01:56:41.433Z,17.55
2018-06-29T01:57:41.407Z,17.55
2018-06-29T01:58:41.392Z,17.49
2018-06-29T01:59:41.376Z,17.51
2018-06-29T02:00:41.360Z,17.52
2018-06-29T02:01:41.360Z,17.54
2018-06-29T02:02:41.330Z,17.52
2018-06-29T02:03:41.318Z,17.49
2018-06-29T02:04:41.299Z,17.59
2018-06-29T02:05:41.284Z,17.52
2018-06-29T02:06:41.269Z,17.52
2018-06-29T02:07:41.265Z,17.52
2018-06-29T02:08:41.237Z,17.54
2018-06-29T02:09:41.222Z,17.48
2018-06-29T02:10:41.209Z,17.54
2018-06-29T02:11:41.193Z,17.52
2018-06-29T02:12:41.186Z,17.46
2018-06-29T02:13:41.161Z,17.49
2018-06-29T02:14:41.146Z,17.51
2018-06-29T02:15:41.130Z,17.46
2018-06-29T02:16:41.114Z,17.51
2018-06-29T02:17:41.115Z,17.46
2018-06-29T02:18:41.084Z,17.51
2018-06-29T02:19:41.068Z,17.52
2018-06-29T02:20:41.052Z,17.43
2018-06-29T02:21:41.038Z,17.54
2018-06-29T02:22:41.021Z,17.48
2018-06-29T02:23:41.015Z,17.34
2018-06-29T02:24:40.990Z,17.33
2018-06-29T02:25:40.975Z,17.38
2018-06-29T02:26:40.960Z,17.33
2018-06-29T02:27:40.979Z,17.40
2018-06-29T02:28:40.946Z,17.34
2018-06-29T02:29:40.913Z,17.40
2018-06-29T02:30:40.923Z,17.36
2018-06-29T02:31:40.884Z,17.37
2018-06-29T02:32:40.867Z,17.41
2018-06-29T02:33:40.853Z,17.46
2018-06-29T02:34:40.846Z,17.44
2018-06-29T02:35:40.837Z,17.41
2018-06-29T02:36:40.806Z,17.36
2018-06-29T02:37:40.791Z,17.38
2018-06-29T02:38:40.775Z,17.33
2018-06-29T02:39:40.791Z,17.37
2018-06-29T02:40:40.744Z,17.38
2018-06-29T02:41:40.727Z,17.36
2018-06-29T02:42:40.713Z,17.34
2018-06-29T02:43:40.697Z,17.31
2018-06-29T02:44:40.686Z,17.26
2018-06-29T02:45:40.676Z,17.38
2018-06-29T02:46:40.652Z,17.28
2018-06-29T02:47:40.643Z,17.31
2018-06-29T02:48:40.620Z,17.34
2018-06-29T02:49:40.605Z,17.33
2018-06-29T02:50:40.706Z,17.37
2018-06-29T02:51:40.575Z,17.28
2018-06-29T02:52:40.560Z,17.26
2018-06-29T02:53:40.543Z,17.31
2018-06-29T02:54:40.527Z,17.36
2018-06-29T02:55:40.512Z,17.37
2018-06-29T02:56:40.508Z,17.37
2018-06-29T02:57:40.481Z,17.41
2018-06-29T02:58:40.466Z,17.43
2018-06-29T02:59:40.449Z,17.43
2018-06-29T03:00:40.447Z,17.44
2018-06-29T03:01:40.416Z,17.55
2018-06-29T03:02:40.403Z,17.51
2018-06-29T03:03:40.387Z,17.51
2018-06-29T03:04:40.371Z,17.49
2018-06-29T03:05:40.354Z,17.54
2018-06-29T03:06:40.350Z,17.64
2018-06-29T03:07:40.325Z,17.59
2018-06-29T03:08:40.309Z,17.62
2018-06-29T03:09:40.294Z,17.64
2018-06-29T03:10:40.278Z,17.64
2018-06-29T03:11:40.297Z,17.64
2018-06-29T03:12:40.247Z,17.68
2018-06-29T03:13:40.232Z,17.66
2018-06-29T03:14:40.216Z,17.64
2018-06-29T03:15:40.201Z,17.64
2018-06-29T03:16:40.184Z,17.64
2018-06-29T03:17:40.179Z,17.63
2018-06-29T03:18:40.162Z,17.59
2018-06-29T03:19:40.139Z,17.55
2018-06-29T03:20:40.121Z,17.62
2018-06-29T03:21:40.108Z,17.64
2018-06-29T03:22:40.105Z,17.56
2018-06-29T03:23:40.078Z,17.58
2018-06-29T03:24:40.060Z,17.51
2018-06-29T03:25:40.046Z,17.46
2018-06-29T03:26:40.030Z,17.48
2018-06-29T03:27:40.015Z,17.46
2018-06-29T03:28:40.014Z,17.46
2018-06-29T03:29:39.984Z,17.46
2018-06-29T03:30:39.969Z,17.40
2018-06-29T03:31:39.953Z,17.48
2018-06-29T03:32:39.936Z,17.37
2018-06-29T03:33:39.930Z,17.30
2018-06-29T03:34:39.905Z,17.37
2018-06-29T03:35:39.890Z,17.40
2018-06-29T03:36:39.874Z,17.31
2018-06-29T03:37:39.860Z,17.40
2018-06-29T03:38:39.876Z,17.31
2018-06-29T03:39:39.839Z,17.38
2018-06-29T03:40:39.889Z,17.38
2018-06-29T03:41:39.797Z,17.40
2018-06-29T03:42:39.781Z,17.48
2018-06-29T03:43:39.765Z,17.49
2018-06-29T03:44:39.758Z,17.38
2018-06-29T03:45:39.735Z,17.46
2018-06-29T03:46:39.722Z,17.46
2018-06-29T03:47:39.704Z,17.43
2018-06-29T03:48:39.688Z,17.46
2018-06-29T03:49:39.688Z,17.55
2018-06-29T03:50:39.658Z,17.48
2018-06-29T03:51:39.645Z,17.52
2018-06-29T03:52:39.626Z,17.56
2018-06-29T03:53:39.611Z,17.55
2018-06-29T03:54:39.595Z,17.62
2018-06-29T03:55:39.589Z,17.55
2018-06-29T03:56:39.564Z,17.64
2018-06-29T03:57:39.548Z,17.71
2018-06-29T03:58:39.533Z,17.75
2018-06-29T03:59:39.519Z,17.72
2018-06-29T04:00:39.511Z,17.81
2018-06-29T04:01:39.487Z,17.74
2018-06-29T04:02:39.471Z,17.90
2018-06-29T04:03:39.457Z,17.86
2018-06-29T04:04:39.439Z,17.84
2018-06-29T04:05:39.440Z,17.92
2018-06-29T04:06:39.409Z,17.93
2018-06-29T04:07:39.393Z,17.92
2018-06-29T04:08:39.379Z,17.89
2018-06-29T04:09:39.363Z,17.97
2018-06-29T04:10:39.346Z,17.93
2018-06-29T04:11:39.343Z,17.97
2018-06-29T04:12:39.320Z,17.90
2018-06-29T04:13:39.299Z,17.89
2018-06-29T04:14:39.285Z,17.86
2018-06-29T04:15:39.271Z,17.77
2018-06-29T04:16:39.267Z,17.71
2018-06-29T04:17:39.239Z,17.70
2018-06-29T04:18:39.223Z,17.63
2018-06-29T04:19:39.209Z,17.59
2018-06-29T04:20:39.190Z,17.54
2018-06-29T04:21:39.176Z,17.48
2018-06-29T04:22:39.171Z,17.46
2018-06-29T04:23:39.146Z,17.40
2018-06-29T04:24:39.130Z,17.48
2018-06-29T04:25:39.116Z,17.48
2018-06-29T04:26:39.100Z,17.52
2018-06-29T04:27:39.093Z,17.55
2018-06-29T04:28:39.068Z,17.51
2018-06-29T04:29:39.055Z,17.54
2018-06-29T04:30:39.038Z,17.49
2018-06-29T04:31:39.024Z,17.37
2018-06-29T04:32:39.065Z,17.36
2018-06-29T04:33:38.991Z,17.34
2018-06-29T04:34:38.975Z,17.46
2018-06-29T04:35:38.960Z,17.43
2018-06-29T04:36:38.944Z,17.49
2018-06-29T04:37:38.942Z,17.46
2018-06-29T04:38:38.916Z,17.54
2018-06-29T04:39:38.896Z,17.38
2018-06-29T04:40:38.881Z,17.40
2018-06-29T04:41:38.866Z,17.44
2018-06-29T04:42:38.850Z,17.34
2018-06-29T04:43:38.852Z,17.36
2018-06-29T04:44:38.819Z,17.38
2018-06-29T04:45:38.804Z,17.41
2018-06-29T04:46:38.787Z,17.36
2018-06-29T04:47:38.772Z,17.34
2018-06-29T04:48:38.756Z,17.36
2018-06-29T04:49:38.756Z,17.36
2018-06-29T04:50:38.726Z,17.46
2018-06-29T04:51:38.711Z,17.48
2018-06-29T04:52:38.695Z,17.48
2018-06-29T04:53:38.678Z,17.43
2018-06-29T04:54:38.675Z,17.48
2018-06-29T04:55:38.648Z,17.49
2018-06-29T04:56:38.633Z,17.51
2018-06-29T04:57:38.617Z,17.49
2018-06-29T04:58:38.601Z,17.54
2018-06-29T04:59:38.600Z,17.51
2018-06-29T05:00:38.570Z,17.51
2018-06-29T05:01:38.555Z,17.58
2018-06-29T05:02:38.538Z,17.62
2018-06-29T05:03:38.525Z,17.55
2018-06-29T05:04:38.508Z,17.52
2018-06-29T05:05:38.506Z,17.54
2018-06-29T05:06:38.478Z,17.66
2018-06-29T05:07:38.462Z,17.68
2018-06-29T05:08:38.446Z,17.84
2018-06-29T05:09:38.430Z,17.99
2018-06-29T05:10:38.415Z,17.87
2018-06-29T05:11:38.416Z,18.11
2018-06-29T05:12:38.384Z,18.08
2018-06-29T05:13:38.369Z,18.17
2018-06-29T05:14:38.354Z,18.20
2018-06-29T05:15:38.339Z,18.23
2018-06-29T05:16:38.322Z,18.23
2018-06-29T05:17:38.349Z,18.30
2018-06-29T05:18:38.292Z,18.50
2018-06-29T05:19:38.276Z,18.52
2018-06-29T05:20:38.275Z,18.55
2018-06-29T05:21:38.284Z,18.60
2018-06-29T05:22:39.034Z,18.51
2018-06-29T05:23:38.214Z,18.54
2018-06-29T05:24:38.197Z,18.60
2018-06-29T05:25:38.184Z,18.54
2018-06-29T05:26:38.168Z,18.55
2018-06-29T05:27:38.644Z,18.69
2018-06-29T05:28:40.089Z,18.73
2018-06-29T05:29:38.142Z,18.81
2018-06-29T05:30:38.128Z,18.82
2018-06-29T05:31:38.096Z,18.81
2018-06-29T05:32:38.077Z,18.85
2018-06-29T05:33:38.076Z,19.04
2018-06-29T05:34:38.052Z,18.94
2018-06-29T05:35:38.032Z,18.94
2018-06-29T05:36:38.019Z,18.98
2018-06-29T05:37:38.004Z,19.08
2018-06-29T05:38:37.986Z,19.06
2018-06-29T05:39:37.981Z,19.29
2018-06-29T05:40:37.954Z,19.43
2018-06-29T05:41:37.961Z,19.56
2018-06-29T05:42:37.981Z,19.40
2018-06-29T05:43:37.910Z,19.47
2018-06-29T05:44:37.907Z,19.81
2018-06-29T05:45:37.880Z,19.92
2018-06-29T05:46:37.864Z,20.05
2018-06-29T05:47:37.850Z,20.29
2018-06-29T05:48:37.834Z,20.35
2018-06-29T05:49:37.832Z,20.43
2018-06-29T05:50:37.805Z,20.59
2018-06-29T05:51:37.790Z,20.80
2018-06-29T05:52:37.775Z,20.98
2018-06-29T05:53:37.764Z,20.98
2018-06-29T05:54:37.760Z,21.24
2018-06-29T05:55:37.731Z,21.42
2018-06-29T05:56:37.716Z,21.59
2018-06-29T05:57:37.703Z,21.67
2018-06-29T05:58:37.687Z,21.83
2018-06-29T05:59:37.675Z,21.65
2018-06-29T06:00:37.681Z,21.96
2018-06-29T06:01:37.645Z,22.00
2018-06-29T06:02:37.631Z,21.71
2018-06-29T06:03:37.617Z,21.96
2018-06-29T06:04:37.641Z,22.03
2018-06-29T06:05:37.588Z,22.33
2018-06-29T06:06:37.585Z,22.52
2018-06-29T06:07:37.561Z,22.24
2018-06-29T06:08:37.547Z,22.22
2018-06-29T06:09:37.532Z,22.55
2018-06-29T06:10:37.520Z,22.49
2018-06-29T06:11:37.516Z,22.68
2018-06-29T06:12:37.494Z,23.02
2018-06-29T06:13:37.479Z,23.22
2018-06-29T06:14:37.464Z,23.04
2018-06-29T06:15:37.453Z,22.92
2018-06-29T06:16:37.447Z,22.94
2018-06-29T06:17:37.426Z,23.04
2018-06-29T06:18:37.411Z,23.35
2018-06-29T06:19:37.399Z,23.27
2018-06-29T06:20:37.385Z,23.50
2018-06-29T06:21:37.387Z,23.78
2018-06-29T06:22:37.362Z,23.80
2018-06-29T06:23:37.346Z,23.76
2018-06-29T06:24:37.333Z,23.40
2018-06-29T06:25:37.321Z,23.57
2018-06-29T06:26:37.309Z,23.07
2018-06-29T06:27:37.305Z,23.32
2018-06-29T06:28:37.282Z,23.72
2018-06-29T06:29:37.269Z,23.51
2018-06-29T06:30:37.260Z,23.35
2018-06-29T06:31:37.246Z,23.02
2018-06-29T06:32:37.244Z,23.79
2018-06-29T06:33:37.219Z,24.20
2018-06-29T06:34:37.206Z,23.66
2018-06-29T06:35:37.195Z,23.39
2018-06-29T06:36:37.181Z,23.61
2018-06-29T06:37:37.168Z,23.38
2018-06-29T06:38:37.166Z,23.63
2018-06-29T06:39:37.143Z,23.23
2018-06-29T06:40:37.133Z,23.36
2018-06-29T06:41:37.137Z,23.47
2018-06-29T06:42:37.109Z,23.91
2018-06-29T06:43:37.106Z,23.72
2018-06-29T06:44:37.081Z,23.95
2018-06-29T06:45:37.070Z,23.69
2018-06-29T06:46:37.057Z,24.09
2018-06-29T06:47:37.046Z,24.50
2018-06-29T06:48:37.046Z,24.00
2018-06-29T06:49:37.021Z,24.64
2018-06-29T06:50:37.012Z,25.09
2018-06-29T06:51:36.997Z,25.30
2018-06-29T06:52:36.984Z,25.50
2018-06-29T06:53:36.976Z,24.61
2018-06-29T06:54:36.969Z,25.17
2018-06-29T06:55:36.947Z,25.14
2018-06-29T06:56:36.934Z,25.02
2018-06-29T06:57:36.921Z,24.49
2018-06-29T06:58:36.910Z,24.77
2018-06-29T06:59:36.919Z,25.35
2018-06-29T07:00:36.886Z,25.95
2018-06-29T07:01:36.873Z,25.45
2018-06-29T07:02:36.862Z,25.14
2018-06-29T07:03:36.850Z,25.55
2018-06-29T07:04:36.837Z,25.67
2018-06-29T07:05:36.833Z,25.72
2018-06-29T07:06:36.813Z,25.02
2018-06-29T07:07:36.801Z,24.76
2018-06-29T07:08:36.791Z,24.95
2018-06-29T07:09:36.779Z,25.36
2018-06-29T07:10:36.801Z,25.61
2018-06-29T07:11:36.755Z,25.97
2018-06-29T07:12:36.744Z,25.43
2018-06-29T07:13:36.730Z,25.54
2018-06-29T07:14:36.718Z,25.97
2018-06-29T07:15:36.708Z,26.54
2018-06-29T07:16:36.710Z,26.13
2018-06-29T07:17:36.683Z,26.30
2018-06-29T07:18:36.673Z,25.82
2018-06-29T07:19:36.660Z,25.43
2018-06-29T07:20:36.649Z,25.20
2018-06-29T07:21:36.644Z,25.99
2018-06-29T07:22:36.627Z,26.10
2018-06-29T07:23:36.613Z,26.25
2018-06-29T07:24:36.679Z,26.70
2018-06-29T07:25:36.590Z,26.07
2018-06-29T07:26:36.595Z,25.55
2018-06-29T07:27:36.598Z,25.90
2018-06-29T07:28:36.554Z,26.07
2018-06-29T07:29:36.548Z,26.52
2018-06-29T07:30:36.532Z,26.10
2018-06-29T07:31:36.519Z,25.40
2018-06-29T07:32:36.526Z,25.62
2018-06-29T07:33:36.502Z,26.21
2018-06-29T07:34:36.498Z,25.70
2018-06-29T07:35:36.490Z,25.13
2018-06-29T07:36:36.465Z,24.49
2018-06-29T07:37:36.456Z,24.21
2018-06-29T07:38:36.556Z,23.94
2018-06-29T07:39:36.428Z,23.72
2018-06-29T07:40:36.418Z,23.72
2018-06-29T07:41:36.419Z,23.75
2018-06-29T07:42:36.402Z,23.80
2018-06-29T07:43:37.084Z,23.91
2018-06-29T07:44:36.366Z,23.73
2018-06-29T07:45:36.357Z,23.93
2018-06-29T07:46:36.370Z,24.00
2018-06-29T07:47:36.334Z,24.10
2018-06-29T07:48:36.333Z,23.93
2018-06-29T07:49:36.312Z,23.61
2018-06-29T07:50:36.301Z,23.53
2018-06-29T07:51:36.297Z,23.48
2018-06-29T07:52:36.276Z,23.47
2018-06-29T07:53:36.283Z,23.73
2018-06-29T07:54:36.254Z,23.72
2018-06-29T07:55:36.244Z,23.69
2018-06-29T07:56:36.237Z,23.90
2018-06-29T07:57:36.220Z,23.95
2018-06-29T07:58:36.236Z,24.18
2018-06-29T07:59:36.210Z,24.28
2018-06-29T08:00:36.183Z,24.37
2018-06-29T08:01:36.172Z,24.15
2018-06-29T08:02:36.225Z,24.12
2018-06-29T08:03:36.152Z,24.13
2018-06-29T08:04:36.137Z,24.13
2018-06-29T08:05:36.146Z,24.18
2018-06-29T08:06:36.110Z,24.34
2018-06-29T08:07:36.105Z,24.20
2018-06-29T08:08:36.089Z,24.20
2018-06-29T08:09:36.078Z,24.25
2018-06-29T08:10:36.089Z,24.32
2018-06-29T08:11:36.059Z,24.20
2018-06-29T08:12:36.044Z,24.25
2018-06-29T08:13:36.031Z,24.30
2018-06-29T08:14:36.021Z,24.42
2018-06-29T08:15:36.028Z,24.55
2018-06-29T08:16:36.004Z,24.60
2018-06-29T08:17:35.993Z,24.60
2018-06-29T08:18:35.976Z,24.62
2018-06-29T08:19:36.004Z,24.68
2018-06-29T08:20:35.951Z,24.65
2018-06-29T08:21:35.946Z,24.73
2018-06-29T08:22:35.926Z,24.76
2018-06-29T08:23:35.939Z,24.76
2018-06-29T08:24:35.924Z,24.85
2018-06-29T08:25:35.905Z,24.85
2018-06-29T08:26:35.905Z,24.85
2018-06-29T08:27:35.909Z,25.00
2018-06-29T08:28:35.878Z,25.00
2018-06-29T08:29:35.874Z,25.08
2018-06-29T08:30:35.836Z,24.99
2018-06-29T08:31:35.826Z,25.00
2018-06-29T08:32:35.823Z,25.21
2018-06-29T08:33:35.802Z,25.15
2018-06-29T08:34:35.789Z,25.14
2018-06-29T08:35:35.780Z,25.35
2018-06-29T08:36:35.768Z,25.45
2018-06-29T08:37:35.770Z,25.52
2018-06-29T08:38:35.796Z,25.51
2018-06-29T08:39:35.734Z,25.58
2018-06-29T08:40:35.775Z,25.28
2018-06-29T08:41:35.712Z,25.27
2018-06-29T08:42:35.699Z,25.35
2018-06-29T08:43:35.698Z,25.40
2018-06-29T08:44:35.677Z,25.27
2018-06-29T08:45:35.664Z,25.30
2018-06-29T08:46:35.679Z,25.45
2018-06-29T08:47:35.643Z,25.61
2018-06-29T08:48:35.645Z,25.54
2018-06-29T08:49:35.642Z,25.58
2018-06-29T08:50:35.609Z,25.60
2018-06-29T08:51:35.598Z,25.58
2018-06-29T08:52:35.586Z,25.61
2018-06-29T08:53:35.574Z,25.62
2018-06-29T08:54:35.577Z,25.52
2018-06-29T08:55:35.551Z,25.58
2018-06-29T08:56:35.541Z,25.60
2018-06-29T08:57:35.535Z,25.62
2018-06-29T08:58:35.518Z,25.50
2018-06-29T08:59:35.508Z,25.54
2018-06-29T09:00:35.506Z,25.69
2018-06-29T09:01:35.485Z,25.79
2018-06-29T09:02:35.477Z,25.69
2018-06-29T09:03:35.463Z,25.69
2018-06-29T09:04:35.453Z,25.64
2018-06-29T09:05:35.453Z,25.72
2018-06-29T09:06:35.430Z,25.70
2018-06-29T09:07:35.420Z,25.79
2018-06-29T09:08:35.409Z,25.77
2018-06-29T09:09:35.398Z,25.82
2018-06-29T09:10:35.395Z,26.06
2018-06-29T09:11:35.375Z,25.98
2018-06-29T09:12:35.363Z,26.13
2018-06-29T09:13:35.353Z,26.06
2018-06-29T09:14:35.349Z,25.97
2018-06-29T09:15:35.364Z,26.18
2018-06-29T09:16:35.319Z,26.18
2018-06-29T09:17:35.309Z,26.25
2018-06-29T09:18:35.301Z,26.32
2018-06-29T09:19:35.289Z,26.40
2018-06-29T09:20:35.276Z,26.50
2018-06-29T09:21:35.296Z,26.52
2018-06-29T09:22:35.255Z,26.58
2018-06-29T09:23:35.245Z,26.63
2018-06-29T09:24:35.235Z,26.58
2018-06-29T09:25:35.222Z,26.62
2018-06-29T09:26:35.211Z,26.50
2018-06-29T09:27:35.210Z,26.60
2018-06-29T09:28:35.204Z,26.69
2018-06-29T09:29:35.179Z,26.76
2018-06-29T09:30:35.172Z,26.84
2018-06-29T09:31:35.158Z,26.81
2018-06-29T09:32:35.161Z,26.82
2018-06-29T09:33:35.137Z,26.89
2018-06-29T09:34:35.126Z,27.00
2018-06-29T09:35:35.116Z,26.94
2018-06-29T09:36:35.106Z,27.06
2018-06-29T09:37:35.094Z,26.81
2018-06-29T09:38:35.095Z,26.58
2018-06-29T09:39:35.073Z,26.76
2018-06-29T09:40:35.061Z,26.88
2018-06-29T09:41:35.051Z,26.99
2018-06-29T09:42:35.061Z,27.09
2018-06-29T09:43:35.045Z,27.07
2018-06-29T09:44:35.023Z,27.24
2018-06-29T09:45:35.009Z,27.21
2018-06-29T09:46:35.000Z,27.10
2018-06-29T09:47:34.990Z,27.13
2018-06-29T09:48:34.978Z,27.22
2018-06-29T09:49:34.978Z,27.22
2018-06-29T09:50:34.957Z,27.29
2018-06-29T09:51:34.946Z,27.25
2018-06-29T09:52:34.936Z,27.24
2018-06-29T09:53:34.927Z,27.22
2018-06-29T09:54:34.934Z,27.21
2018-06-29T09:55:34.905Z,27.12
2018-06-29T09:56:34.897Z,27.14
2018-06-29T09:57:34.933Z,27.17
2018-06-29T09:58:34.874Z,27.17
2018-06-29T09:59:34.864Z,27.18
2018-06-29T10:00:34.930Z,27.24
2018-06-29T10:01:34.847Z,27.39
2018-06-29T10:02:39.276Z,27.41
2018-06-29T10:03:34.824Z,27.50
2018-06-29T10:04:34.811Z,27.70
2018-06-29T10:05:34.802Z,27.60
2018-06-29T10:06:34.802Z,27.49
2018-06-29T10:07:34.782Z,27.57
2018-06-29T10:08:34.795Z,27.78
2018-06-29T10:09:34.761Z,27.74
2018-06-29T10:10:34.753Z,27.54
2018-06-29T10:11:34.759Z,27.69
2018-06-29T10:12:34.736Z,27.81
2018-06-29T10:13:34.721Z,27.93
2018-06-29T10:14:34.712Z,28.00
2018-06-29T10:15:34.702Z,28.00
2018-06-29T10:16:34.703Z,27.96
2018-06-29T10:17:34.685Z,28.14
2018-06-29T10:18:34.672Z,28.24
2018-06-29T10:19:34.689Z,28.27
2018-06-29T10:20:34.668Z,28.33
2018-06-29T10:21:34.656Z,28.09
2018-06-29T10:22:34.634Z,28.12
2018-06-29T10:23:34.623Z,28.14
2018-06-29T10:24:34.614Z,28.21
2018-06-29T10:25:34.638Z,28.03
2018-06-29T10:26:34.591Z,28.14
2018-06-29T10:27:34.602Z,28.19
2018-06-29T10:28:34.572Z,28.18
2018-06-29T10:29:34.563Z,28.17
2018-06-29T10:30:34.553Z,28.12
2018-06-29T10:31:34.545Z,28.14
2018-06-29T10:32:34.533Z,28.12
2018-06-29T10:33:34.536Z,28.29
2018-06-29T10:34:34.513Z,28.21
2018-06-29T10:35:34.505Z,28.29
2018-06-29T10:36:34.494Z,28.33
2018-06-29T10:37:34.486Z,28.40
2018-06-29T10:38:34.475Z,28.25
2018-06-29T10:39:34.475Z,28.21
2018-06-29T10:40:34.456Z,28.24
2018-06-29T10:41:34.507Z,28.24
2018-06-29T10:42:34.436Z,28.31
2018-06-29T10:43:34.428Z,28.34
2018-06-29T10:44:34.456Z,28.43
2018-06-29T10:45:34.408Z,28.58
2018-06-29T10:46:34.400Z,28.70
2018-06-29T10:47:34.390Z,28.76
2018-06-29T10:48:34.380Z,28.80
2018-06-29T10:49:34.381Z,28.80
2018-06-29T10:50:34.360Z,28.95
2018-06-29T10:51:34.351Z,29.16
2018-06-29T10:52:34.341Z,29.04
2018-06-29T10:53:34.334Z,29.14
2018-06-29T10:54:34.337Z,28.90
2018-06-29T10:55:34.313Z,28.88
2018-06-29T10:56:34.305Z,28.67
2018-06-29T10:57:34.297Z,28.98
2018-06-29T10:58:34.293Z,29.30
2018-06-29T10:59:34.286Z,29.74
2018-06-29T11:00:34.267Z,29.46
2018-06-29T11:01:34.257Z,29.89
2018-06-29T11:02:34.247Z,29.83
2018-06-29T11:03:34.240Z,29.90
2018-06-29T11:04:34.249Z,30.07
2018-06-29T11:05:34.240Z,30.05
2018-06-29T11:06:34.211Z,30.17
2018-06-29T11:07:34.202Z,30.20
2018-06-29T11:08:34.192Z,30.45
2018-06-29T11:09:34.182Z,30.80
2018-06-29T11:10:34.208Z,30.57
2018-06-29T11:11:34.170Z,30.92
2018-06-29T11:12:34.155Z,31.04
2018-06-29T11:13:34.147Z,31.23
2018-06-29T11:14:34.137Z,31.13
2018-06-29T11:15:34.130Z,31.25
2018-06-29T11:16:34.129Z,30.89
2018-06-29T11:17:34.111Z,30.88
2018-06-29T11:18:34.101Z,31.23
2018-06-29T11:19:34.091Z,31.51
2018-06-29T11:20:34.081Z,31.91
2018-06-29T11:21:34.083Z,31.43
2018-06-29T11:22:34.090Z,31.38
2018-06-29T11:23:34.057Z,30.43
2018-06-29T11:24:34.051Z,30.65
2018-06-29T11:25:34.037Z,30.97
2018-06-29T11:26:34.039Z,31.21
2018-06-29T11:27:34.020Z,31.47
2018-06-29T11:28:34.013Z,31.43
2018-06-29T11:29:34.001Z,31.44
2018-06-29T11:30:34.007Z,31.39
2018-06-29T11:31:35.680Z,31.13
2018-06-29T11:32:33.983Z,30.86
2018-06-29T11:33:34.037Z,30.98
2018-06-29T11:34:33.963Z,31.01
2018-06-29T11:35:33.949Z,31.43
2018-06-29T11:36:33.951Z,31.13
2018-06-29T11:37:33.934Z,31.04
2018-06-29T11:38:33.926Z,31.63
2018-06-29T11:39:33.915Z,31.57
2018-06-29T11:40:33.904Z,31.56
2018-06-29T11:41:33.896Z,32.14
2018-06-29T11:42:33.947Z,32.45
2018-06-29T11:43:33.878Z,32.40
2018-06-29T11:44:33.867Z,31.76
2018-06-29T11:45:33.866Z,31.47
2018-06-29T11:46:33.853Z,31.76
2018-06-29T11:47:33.843Z,31.85
2018-06-29T11:48:33.887Z,32.08
2018-06-29T11:49:33.827Z,32.47
2018-06-29T11:50:33.818Z,32.35
2018-06-29T11:51:33.821Z,32.84
2018-06-29T11:52:33.799Z,32.66
2018-06-29T11:53:33.801Z,31.95
2018-06-29T11:54:33.785Z,32.00
2018-06-29T11:55:33.774Z,32.43
2018-06-29T11:56:33.764Z,32.06
2018-06-29T11:57:33.756Z,31.92
2018-06-29T11:58:33.761Z,31.68
2018-06-29T11:59:33.740Z,32.26
2018-06-29T12:00:33.736Z,32.43
2018-06-29T12:01:33.724Z,32.47
2018-06-29T12:02:33.714Z,32.93
2018-06-29T12:03:33.706Z,33.72
2018-06-29T12:04:33.706Z,33.45
2018-06-29T12:05:33.690Z,33.69
2018-06-29T12:06:33.693Z,33.78
2018-06-29T12:07:33.671Z,33.61
2018-06-29T12:08:33.664Z,33.54
2018-06-29T12:09:33.665Z,33.47
2018-06-29T12:10:33.673Z,33.18
2018-06-29T12:11:33.673Z,33.53
2018-06-29T12:12:33.626Z,32.56
2018-06-29T12:13:33.626Z,32.33
2018-06-29T12:14:33.643Z,31.99
2018-06-29T12:15:33.604Z,31.86
2018-06-29T12:16:33.597Z,32.06
2018-06-29T12:17:33.587Z,32.44
2018-06-29T12:18:33.581Z,32.81
2018-06-29T12:19:33.572Z,33.34
2018-06-29T12:20:33.572Z,33.19
2018-06-29T12:21:33.554Z,33.16
2018-06-29T12:22:33.545Z,32.81
2018-06-29T12:23:33.540Z,33.49
2018-06-29T12:24:33.530Z,33.61
2018-06-29T12:25:33.556Z,33.45
2018-06-29T12:26:33.513Z,32.93
2018-06-29T12:27:33.504Z,33.50
2018-06-29T12:28:33.497Z,33.04
2018-06-29T12:29:33.487Z,32.93
2018-06-29T12:30:33.492Z,33.03
2018-06-29T12:31:33.472Z,33.26
2018-06-29T12:32:33.464Z,33.87
2018-06-29T12:33:33.456Z,34.24
2018-06-29T12:34:33.447Z,33.86
2018-06-29T12:35:33.438Z,33.97
2018-06-29T12:36:33.441Z,33.44
2018-06-29T12:37:33.422Z,31.91
2018-06-29T12:38:33.414Z,31.43
2018-06-29T12:39:33.405Z,31.50
2018-06-29T12:40:33.396Z,31.75
2018-06-29T12:41:33.404Z,32.84
2018-06-29T12:42:33.382Z,33.45
2018-06-29T12:43:33.372Z,33.35
2018-06-29T12:44:33.363Z,33.88
2018-06-29T12:45:33.355Z,34.27
2018-06-29T12:46:33.349Z,34.28
2018-06-29T12:47:33.351Z,33.68
2018-06-29T12:48:33.331Z,33.69
2018-06-29T12:49:33.328Z,33.42
2018-06-29T12:50:33.316Z,33.49
2018-06-29T12:51:33.327Z,33.31
2018-06-29T12:52:33.309Z,33.63